sensor_id;sensor_type;location;lat;lon;timestamp;P1;durP1;ratioP1;P2;durP2;ratioP2
5819;SDS011;2936;47.348;9.640;2023-06-14T00:18:55;6.33;;;5.37;;
5819;SDS011;2936;47.348;9.640;2023-06-14T00:21:23;6.40;;;5.80;;
5819;SDS011;2936;47.348;9.640;2023-06-14T00:23:50;9.07;;;5.00;;
5819;SDS011;2936;47.348;9.640;2023-06-14T00:29:22;6.87;;;5.67;;
5819;SDS011;2936;47.348;9.640;2023-06-14T00:31:50;6.60;;;5.60;;
5819;SDS011;2936;47.348;9.640;2023-06-14T00:34:19;6.00;;;5.40;;
5819;SDS011;2936;47.348;9.640;2023-06-14T00:36:46;6.23;;;5.63;;
5819;SDS011;2936;47.348;9.640;2023-06-14T00:39:13;5.80;;;5.30;;
5819;SDS011;2936;47.348;9.640;2023-06-14T00:41:41;7.80;;;5.60;;
5819;SDS011;2936;47.348;9.640;2023-06-14T00:44:08;7.20;;;6.60;;
5819;SDS011;2936;47.348;9.640;2023-06-14T00:46:35;7.10;;;5.67;;
5819;SDS011;2936;47.348;9.640;2023-06-14T00:49:03;6.80;;;6.00;;
5819;SDS011;2936;47.348;9.640;2023-06-14T00:51:32;6.33;;;5.73;;
5819;SDS011;2936;47.348;9.640;2023-06-14T00:54:00;6.17;;;5.63;;
5819;SDS011;2936;47.348;9.640;2023-06-14T00:56:27;6.03;;;5.63;;
5819;SDS011;2936;47.348;9.640;2023-06-14T00:58:54;6.63;;;5.83;;
5819;SDS011;2936;47.348;9.640;2023-06-14T01:01:23;10.43;;;6.23;;
5819;SDS011;2936;47.348;9.640;2023-06-14T01:03:50;6.20;;;5.60;;
5819;SDS011;2936;47.348;9.640;2023-06-14T01:06:19;9.53;;;5.70;;
5819;SDS011;2936;47.348;9.640;2023-06-14T01:08:56;9.07;;;6.23;;
5819;SDS011;2936;47.348;9.640;2023-06-14T01:11:29;6.97;;;6.27;;
5819;SDS011;2936;47.348;9.640;2023-06-14T01:13:58;5.97;;;5.47;;
5819;SDS011;2936;47.348;9.640;2023-06-14T01:16:27;5.90;;;5.50;;
5819;SDS011;2936;47.348;9.640;2023-06-14T01:18:55;6.37;;;5.83;;
5819;SDS011;2936;47.348;9.640;2023-06-14T01:21:23;13.80;;;7.13;;
5819;SDS011;2936;47.348;9.640;2023-06-14T01:23:52;8.33;;;6.03;;
5819;SDS011;2936;47.348;9.640;2023-06-14T01:26:20;6.70;;;6.10;;
5819;SDS011;2936;47.348;9.640;2023-06-14T01:28:48;6.43;;;6.03;;
5819;SDS011;2936;47.348;9.640;2023-06-14T01:31:18;5.97;;;5.47;;
5819;SDS011;2936;47.348;9.640;2023-06-14T01:33:46;8.20;;;6.03;;
5819;SDS011;2936;47.348;9.640;2023-06-14T01:36:15;6.67;;;6.07;;
5819;SDS011;2936;47.348;9.640;2023-06-14T01:38:42;13.43;;;6.33;;
5819;SDS011;2936;47.348;9.640;2023-06-14T01:41:12;6.20;;;5.60;;
5819;SDS011;2936;47.348;9.640;2023-06-14T01:43:40;7.07;;;6.37;;
5819;SDS011;2936;47.348;9.640;2023-06-14T01:46:08;9.93;;;6.17;;
5819;SDS011;2936;47.348;9.640;2023-06-14T01:48:36;7.63;;;5.97;;
5819;SDS011;2936;47.348;9.640;2023-06-14T01:51:04;6.97;;;6.37;;
5819;SDS011;2936;47.348;9.640;2023-06-14T01:53:31;11.80;;;6.00;;
5819;SDS011;2936;47.348;9.640;2023-06-14T01:55:58;7.25;;;5.85;;
5819;SDS011;2936;47.348;9.640;2023-06-14T01:58:27;8.27;;;6.53;;
5819;SDS011;2936;47.348;9.640;2023-06-14T02:00:55;7.73;;;5.57;;
5819;SDS011;2936;47.348;9.640;2023-06-14T02:03:23;6.80;;;5.67;;
5819;SDS011;2936;47.348;9.640;2023-06-14T02:05:50;6.33;;;5.70;;
5819;SDS011;2936;47.348;9.640;2023-06-14T02:08:17;10.37;;;6.03;;
5819;SDS011;2936;47.348;9.640;2023-06-14T02:10:45;9.05;;;5.97;;
5819;SDS011;2936;47.348;9.640;2023-06-14T02:13:12;8.95;;;6.15;;
5819;SDS011;2936;47.348;9.640;2023-06-14T02:15:41;11.73;;;6.45;;
5819;SDS011;2936;47.348;9.640;2023-06-14T02:18:09;7.23;;;5.77;;
5819;SDS011;2936;47.348;9.640;2023-06-14T02:20:36;6.75;;;6.15;;
5819;SDS011;2936;47.348;9.640;2023-06-14T02:23:04;6.53;;;5.93;;
5819;SDS011;2936;47.348;9.640;2023-06-14T02:25:33;6.50;;;5.80;;
5819;SDS011;2936;47.348;9.640;2023-06-14T02:28:00;6.00;;;5.40;;
5819;SDS011;2936;47.348;9.640;2023-06-14T02:30:28;7.97;;;7.18;;
5819;SDS011;2936;47.348;9.640;2023-06-14T02:32:57;6.70;;;6.10;;
5819;SDS011;2936;47.348;9.640;2023-06-14T02:35:25;6.68;;;6.13;;
5819;SDS011;2936;47.348;9.640;2023-06-14T02:37:52;7.60;;;6.20;;
5819;SDS011;2936;47.348;9.640;2023-06-14T02:40:20;6.47;;;5.88;;
5819;SDS011;2936;47.348;9.640;2023-06-14T02:42:47;9.48;;;7.05;;
5819;SDS011;2936;47.348;9.640;2023-06-14T02:45:14;7.32;;;6.63;;
5819;SDS011;2936;47.348;9.640;2023-06-14T02:47:42;6.60;;;5.90;;
5819;SDS011;2936;47.348;9.640;2023-06-14T02:50:10;9.88;;;6.85;;
5819;SDS011;2936;47.348;9.640;2023-06-14T02:52:38;6.72;;;5.90;;
5819;SDS011;2936;47.348;9.640;2023-06-14T02:55:07;8.18;;;6.63;;
5819;SDS011;2936;47.348;9.640;2023-06-14T02:57:34;9.93;;;6.22;;
5819;SDS011;2936;47.348;9.640;2023-06-14T03:00:02;6.85;;;6.25;;
5819;SDS011;2936;47.348;9.640;2023-06-14T03:02:30;7.00;;;5.93;;
5819;SDS011;2936;47.348;9.640;2023-06-14T03:04:57;7.30;;;6.25;;
5819;SDS011;2936;47.348;9.640;2023-06-14T03:07:28;6.97;;;6.47;;
5819;SDS011;2936;47.348;9.640;2023-06-14T03:09:55;8.40;;;7.60;;
5819;SDS011;2936;47.348;9.640;2023-06-14T03:12:22;13.52;;;7.68;;
5819;SDS011;2936;47.348;9.640;2023-06-14T03:14:50;9.07;;;6.88;;
5819;SDS011;2936;47.348;9.640;2023-06-14T03:17:18;11.52;;;8.27;;
5819;SDS011;2936;47.348;9.640;2023-06-14T03:19:45;8.32;;;6.55;;
5819;SDS011;2936;47.348;9.640;2023-06-14T03:22:13;7.03;;;6.30;;
5819;SDS011;2936;47.348;9.640;2023-06-14T03:24:41;10.60;;;7.22;;
5819;SDS011;2936;47.348;9.640;2023-06-14T03:27:09;10.90;;;6.97;;
5819;SDS011;2936;47.348;9.640;2023-06-14T03:29:37;7.40;;;6.15;;
5819;SDS011;2936;47.348;9.640;2023-06-14T03:32:05;8.68;;;5.75;;
5819;SDS011;2936;47.348;9.640;2023-06-14T03:34:32;9.00;;;6.90;;
5819;SDS011;2936;47.348;9.640;2023-06-14T03:37:00;6.43;;;5.82;;
5819;SDS011;2936;47.348;9.640;2023-06-14T03:39:27;10.07;;;6.03;;
5819;SDS011;2936;47.348;9.640;2023-06-14T03:41:56;8.50;;;6.72;;
5819;SDS011;2936;47.348;9.640;2023-06-14T03:44:26;9.88;;;6.75;;
5819;SDS011;2936;47.348;9.640;2023-06-14T03:46:53;10.15;;;6.40;;
5819;SDS011;2936;47.348;9.640;2023-06-14T03:49:21;12.75;;;7.18;;
5819;SDS011;2936;47.348;9.640;2023-06-14T03:51:48;8.30;;;5.88;;
5819;SDS011;2936;47.348;9.640;2023-06-14T03:54:16;6.53;;;5.93;;
5819;SDS011;2936;47.348;9.640;2023-06-14T03:56:43;12.63;;;6.90;;
5819;SDS011;2936;47.348;9.640;2023-06-14T03:59:13;10.95;;;7.00;;
5819;SDS011;2936;47.348;9.640;2023-06-14T04:01:40;9.18;;;6.65;;
5819;SDS011;2936;47.348;9.640;2023-06-14T04:04:11;8.95;;;6.90;;
5819;SDS011;2936;47.348;9.640;2023-06-14T04:06:41;8.15;;;7.25;;
5819;SDS011;2936;47.348;9.640;2023-06-14T04:09:08;16.05;;;7.85;;
5819;SDS011;2936;47.348;9.640;2023-06-14T04:11:36;8.07;;;7.28;;
5819;SDS011;2936;47.348;9.640;2023-06-14T04:14:03;12.57;;;7.85;;
5819;SDS011;2936;47.348;9.640;2023-06-14T04:16:32;10.20;;;6.53;;
5819;SDS011;2936;47.348;9.640;2023-06-14T04:19:00;7.13;;;6.53;;
5819;SDS011;2936;47.348;9.640;2023-06-14T04:21:27;11.95;;;7.15;;
5819;SDS011;2936;47.348;9.640;2023-06-14T04:23:55;7.93;;;7.13;;
5819;SDS011;2936;47.348;9.640;2023-06-14T04:26:22;9.63;;;8.15;;
5819;SDS011;2936;47.348;9.640;2023-06-14T04:28:54;8.65;;;7.00;;
5819;SDS011;2936;47.348;9.640;2023-06-14T04:31:27;25.48;;;7.47;;
5819;SDS011;2936;47.348;9.640;2023-06-14T04:33:56;7.65;;;6.97;;
5819;SDS011;2936;47.348;9.640;2023-06-14T04:36:24;7.30;;;6.47;;
5819;SDS011;2936;47.348;9.640;2023-06-14T04:38:53;11.18;;;8.07;;
5819;SDS011;2936;47.348;9.640;2023-06-14T04:41:20;9.15;;;7.45;;
5819;SDS011;2936;47.348;9.640;2023-06-14T04:43:48;14.98;;;7.03;;
5819;SDS011;2936;47.348;9.640;2023-06-14T04:46:15;11.48;;;6.93;;
5819;SDS011;2936;47.348;9.640;2023-06-14T04:48:43;9.65;;;7.43;;
5819;SDS011;2936;47.348;9.640;2023-06-14T04:51:14;11.80;;;6.55;;
5819;SDS011;2936;47.348;9.640;2023-06-14T04:53:41;13.55;;;7.47;;
5819;SDS011;2936;47.348;9.640;2023-06-14T04:56:10;12.80;;;7.75;;
5819;SDS011;2936;47.348;9.640;2023-06-14T04:58:37;14.73;;;7.95;;
5819;SDS011;2936;47.348;9.640;2023-06-14T05:01:04;8.83;;;7.93;;
5819;SDS011;2936;47.348;9.640;2023-06-14T05:03:34;9.53;;;8.00;;
5819;SDS011;2936;47.348;9.640;2023-06-14T05:06:01;10.93;;;7.30;;
5819;SDS011;2936;47.348;9.640;2023-06-14T05:08:30;7.80;;;6.93;;
5819;SDS011;2936;47.348;9.640;2023-06-14T05:10:58;18.03;;;7.90;;
5819;SDS011;2936;47.348;9.640;2023-06-14T05:13:25;11.13;;;7.70;;
5819;SDS011;2936;47.348;9.640;2023-06-14T05:15:53;10.07;;;7.23;;
5819;SDS011;2936;47.348;9.640;2023-06-14T05:18:20;7.87;;;7.07;;
5819;SDS011;2936;47.348;9.640;2023-06-14T05:20:47;9.27;;;7.13;;
5819;SDS011;2936;47.348;9.640;2023-06-14T05:23:15;7.80;;;7.00;;
5819;SDS011;2936;47.348;9.640;2023-06-14T05:25:44;9.60;;;6.80;;
5819;SDS011;2936;47.348;9.640;2023-06-14T05:28:12;8.83;;;7.20;;
5819;SDS011;2936;47.348;9.640;2023-06-14T05:30:39;15.43;;;8.80;;
5819;SDS011;2936;47.348;9.640;2023-06-14T05:33:06;9.17;;;6.77;;
5819;SDS011;2936;47.348;9.640;2023-06-14T05:35:34;9.33;;;7.13;;
5819;SDS011;2936;47.348;9.640;2023-06-14T05:38:03;9.20;;;7.20;;
5819;SDS011;2936;47.348;9.640;2023-06-14T05:40:30;11.87;;;7.47;;
5819;SDS011;2936;47.348;9.640;2023-06-14T05:42:59;13.13;;;7.10;;
5819;SDS011;2936;47.348;9.640;2023-06-14T05:45:27;7.47;;;6.77;;
5819;SDS011;2936;47.348;9.640;2023-06-14T05:47:54;19.03;;;8.97;;
5819;SDS011;2936;47.348;9.640;2023-06-14T05:50:22;12.60;;;7.80;;
5819;SDS011;2936;47.348;9.640;2023-06-14T05:52:49;8.50;;;6.97;;
5819;SDS011;2936;47.348;9.640;2023-06-14T05:55:16;11.40;;;7.90;;
5819;SDS011;2936;47.348;9.640;2023-06-14T05:57:44;12.50;;;7.03;;
5819;SDS011;2936;47.348;9.640;2023-06-14T06:00:14;7.40;;;6.73;;
5819;SDS011;2936;47.348;9.640;2023-06-14T06:02:42;8.67;;;7.00;;
5819;SDS011;2936;47.348;9.640;2023-06-14T06:05:11;11.10;;;6.20;;
5819;SDS011;2936;47.348;9.640;2023-06-14T06:07:38;8.50;;;6.57;;
5819;SDS011;2936;47.348;9.640;2023-06-14T06:10:06;10.43;;;7.07;;
5819;SDS011;2936;47.348;9.640;2023-06-14T06:12:34;6.50;;;5.90;;
5819;SDS011;2936;47.348;9.640;2023-06-14T06:15:01;6.13;;;5.53;;
5819;SDS011;2936;47.348;9.640;2023-06-14T06:17:30;7.90;;;6.40;;
5819;SDS011;2936;47.348;9.640;2023-06-14T06:19:57;7.57;;;6.23;;
5819;SDS011;2936;47.348;9.640;2023-06-14T06:22:25;11.30;;;5.57;;
5819;SDS011;2936;47.348;9.640;2023-06-14T06:24:52;9.27;;;6.73;;
5819;SDS011;2936;47.348;9.640;2023-06-14T06:27:20;10.43;;;5.90;;
5819;SDS011;2936;47.348;9.640;2023-06-14T06:29:47;7.03;;;5.83;;
5819;SDS011;2936;47.348;9.640;2023-06-14T06:32:15;7.37;;;6.33;;
5819;SDS011;2936;47.348;9.640;2023-06-14T06:34:43;7.70;;;5.50;;
5819;SDS011;2936;47.348;9.640;2023-06-14T06:37:11;8.90;;;6.50;;
5819;SDS011;2936;47.348;9.640;2023-06-14T06:39:38;10.40;;;7.07;;
5819;SDS011;2936;47.348;9.640;2023-06-14T06:42:06;9.37;;;6.00;;
5819;SDS011;2936;47.348;9.640;2023-06-14T06:44:33;13.30;;;6.40;;
5819;SDS011;2936;47.348;9.640;2023-06-14T06:47:01;12.10;;;5.53;;
5819;SDS011;2936;47.348;9.640;2023-06-14T06:49:28;10.20;;;6.47;;
5819;SDS011;2936;47.348;9.640;2023-06-14T06:52:00;14.53;;;5.73;;
5819;SDS011;2936;47.348;9.640;2023-06-14T06:54:29;9.00;;;6.00;;
5819;SDS011;2936;47.348;9.640;2023-06-14T06:56:56;10.53;;;5.40;;
5819;SDS011;2936;47.348;9.640;2023-06-14T06:59:24;7.70;;;5.50;;
5819;SDS011;2936;47.348;9.640;2023-06-14T07:01:51;8.73;;;5.80;;
5819;SDS011;2936;47.348;9.640;2023-06-14T07:04:19;9.20;;;5.60;;
5819;SDS011;2936;47.348;9.640;2023-06-14T07:06:46;11.20;;;6.97;;
5819;SDS011;2936;47.348;9.640;2023-06-14T07:09:15;10.40;;;6.43;;
5819;SDS011;2936;47.348;9.640;2023-06-14T07:11:45;11.10;;;6.30;;
5819;SDS011;2936;47.348;9.640;2023-06-14T07:14:12;13.03;;;6.27;;
5819;SDS011;2936;47.348;9.640;2023-06-14T07:16:39;6.53;;;5.70;;
5819;SDS011;2936;47.348;9.640;2023-06-14T07:19:08;7.03;;;6.43;;
5819;SDS011;2936;47.348;9.640;2023-06-14T07:21:35;9.40;;;6.50;;
5819;SDS011;2936;47.348;9.640;2023-06-14T07:24:04;8.73;;;5.67;;
5819;SDS011;2936;47.348;9.640;2023-06-14T07:26:34;12.30;;;5.80;;
5819;SDS011;2936;47.348;9.640;2023-06-14T07:29:01;7.23;;;6.40;;
5819;SDS011;2936;47.348;9.640;2023-06-14T07:31:30;6.17;;;5.67;;
5819;SDS011;2936;47.348;9.640;2023-06-14T07:33:57;16.97;;;5.47;;
5819;SDS011;2936;47.348;9.640;2023-06-14T07:36:24;5.77;;;5.27;;
5819;SDS011;2936;47.348;9.640;2023-06-14T07:38:52;7.90;;;5.40;;
5819;SDS011;2936;47.348;9.640;2023-06-14T07:41:19;12.50;;;5.70;;
5819;SDS011;2936;47.348;9.640;2023-06-14T07:43:48;6.03;;;5.43;;
5819;SDS011;2936;47.348;9.640;2023-06-14T07:46:16;14.37;;;6.00;;
5819;SDS011;2936;47.348;9.640;2023-06-14T07:48:43;5.50;;;5.07;;
5819;SDS011;2936;47.348;9.640;2023-06-14T07:51:10;15.73;;;5.97;;
5819;SDS011;2936;47.348;9.640;2023-06-14T07:53:38;6.57;;;5.77;;
5819;SDS011;2936;47.348;9.640;2023-06-14T07:56:08;7.33;;;4.97;;
5819;SDS011;2936;47.348;9.640;2023-06-14T07:58:36;8.13;;;5.73;;
5819;SDS011;2936;47.348;9.640;2023-06-14T08:01:05;7.63;;;5.63;;
5819;SDS011;2936;47.348;9.640;2023-06-14T08:03:33;6.73;;;6.13;;
5819;SDS011;2936;47.348;9.640;2023-06-14T08:06:00;6.63;;;5.50;;
5819;SDS011;2936;47.348;9.640;2023-06-14T08:08:28;9.00;;;6.10;;
5819;SDS011;2936;47.348;9.640;2023-06-14T08:10:55;10.40;;;6.13;;
5819;SDS011;2936;47.348;9.640;2023-06-14T08:13:22;6.47;;;5.87;;
5819;SDS011;2936;47.348;9.640;2023-06-14T08:15:50;10.57;;;5.27;;
5819;SDS011;2936;47.348;9.640;2023-06-14T08:18:19;7.27;;;5.30;;
5819;SDS011;2936;47.348;9.640;2023-06-14T08:20:46;6.80;;;5.20;;
5819;SDS011;2936;47.348;9.640;2023-06-14T08:23:13;6.20;;;5.40;;
5819;SDS011;2936;47.348;9.640;2023-06-14T08:25:44;7.43;;;5.67;;
5819;SDS011;2936;47.348;9.640;2023-06-14T08:28:11;8.90;;;5.07;;
5819;SDS011;2936;47.348;9.640;2023-06-14T08:30:38;7.63;;;5.93;;
5819;SDS011;2936;47.348;9.640;2023-06-14T08:33:06;10.60;;;5.90;;
5819;SDS011;2936;47.348;9.640;2023-06-14T08:35:35;11.43;;;5.97;;
5819;SDS011;2936;47.348;9.640;2023-06-14T08:38:04;6.40;;;5.90;;
5819;SDS011;2936;47.348;9.640;2023-06-14T08:40:32;7.73;;;5.03;;
5819;SDS011;2936;47.348;9.640;2023-06-14T08:43:04;7.50;;;5.97;;
5819;SDS011;2936;47.348;9.640;2023-06-14T08:45:31;8.03;;;5.43;;
5819;SDS011;2936;47.348;9.640;2023-06-14T08:47:59;9.83;;;5.50;;
5819;SDS011;2936;47.348;9.640;2023-06-14T08:50:26;5.20;;;4.73;;
5819;SDS011;2936;47.348;9.640;2023-06-14T08:52:57;6.03;;;5.53;;
5819;SDS011;2936;47.348;9.640;2023-06-14T08:55:27;7.97;;;4.93;;
5819;SDS011;2936;47.348;9.640;2023-06-14T08:57:55;5.40;;;4.70;;
5819;SDS011;2936;47.348;9.640;2023-06-14T09:00:24;13.63;;;5.30;;
5819;SDS011;2936;47.348;9.640;2023-06-14T09:02:53;11.80;;;5.47;;
5819;SDS011;2936;47.348;9.640;2023-06-14T09:05:22;5.73;;;5.23;;
5819;SDS011;2936;47.348;9.640;2023-06-14T09:07:50;7.40;;;5.33;;
5819;SDS011;2936;47.348;9.640;2023-06-14T09:10:21;5.40;;;4.83;;
5819;SDS011;2936;47.348;9.640;2023-06-14T09:12:50;6.10;;;4.93;;
5819;SDS011;2936;47.348;9.640;2023-06-14T09:15:18;5.77;;;5.00;;
5819;SDS011;2936;47.348;9.640;2023-06-14T09:17:45;6.37;;;4.67;;
5819;SDS011;2936;47.348;9.640;2023-06-14T09:20:13;18.60;;;5.50;;
5819;SDS011;2936;47.348;9.640;2023-06-14T09:22:43;6.63;;;6.03;;
5819;SDS011;2936;47.348;9.640;2023-06-14T09:25:11;6.03;;;5.47;;
5819;SDS011;2936;47.348;9.640;2023-06-14T09:27:41;7.37;;;4.90;;
5819;SDS011;2936;47.348;9.640;2023-06-14T09:30:09;12.30;;;5.20;;
5819;SDS011;2936;47.348;9.640;2023-06-14T09:32:37;5.47;;;5.00;;
5819;SDS011;2936;47.348;9.640;2023-06-14T09:35:05;5.67;;;5.03;;
5819;SDS011;2936;47.348;9.640;2023-06-14T09:37:33;6.13;;;5.23;;
5819;SDS011;2936;47.348;9.640;2023-06-14T09:40:00;5.87;;;4.90;;
5819;SDS011;2936;47.348;9.640;2023-06-14T09:42:28;9.13;;;5.40;;
5819;SDS011;2936;47.348;9.640;2023-06-14T09:44:56;5.93;;;5.43;;
5819;SDS011;2936;47.348;9.640;2023-06-14T09:47:24;9.07;;;5.30;;
5819;SDS011;2936;47.348;9.640;2023-06-14T09:49:51;11.10;;;5.90;;
5819;SDS011;2936;47.348;9.640;2023-06-14T09:52:20;12.70;;;5.77;;
5819;SDS011;2936;47.348;9.640;2023-06-14T09:54:48;8.13;;;5.00;;
5819;SDS011;2936;47.348;9.640;2023-06-14T09:57:16;14.60;;;5.60;;
5819;SDS011;2936;47.348;9.640;2023-06-14T09:59:44;7.20;;;5.37;;
5819;SDS011;2936;47.348;9.640;2023-06-14T10:02:18;6.40;;;5.20;;
5819;SDS011;2936;47.348;9.640;2023-06-14T10:04:46;9.70;;;5.10;;
5819;SDS011;2936;47.348;9.640;2023-06-14T10:07:14;5.33;;;4.90;;
5819;SDS011;2936;47.348;9.640;2023-06-14T10:09:41;7.20;;;4.73;;
5819;SDS011;2936;47.348;9.640;2023-06-14T10:12:13;8.57;;;6.07;;
5819;SDS011;2936;47.348;9.640;2023-06-14T10:14:45;7.63;;;4.87;;
5819;SDS011;2936;47.348;9.640;2023-06-14T10:17:17;5.80;;;5.20;;
5819;SDS011;2936;47.348;9.640;2023-06-14T10:19:48;5.90;;;5.50;;
5819;SDS011;2936;47.348;9.640;2023-06-14T10:22:19;5.87;;;5.20;;
5819;SDS011;2936;47.348;9.640;2023-06-14T10:24:50;8.20;;;5.00;;
5819;SDS011;2936;47.348;9.640;2023-06-14T10:27:17;5.53;;;5.03;;
5819;SDS011;2936;47.348;9.640;2023-06-14T10:30:02;7.10;;;5.83;;
5819;SDS011;2936;47.348;9.640;2023-06-14T10:32:31;5.83;;;5.23;;
5819;SDS011;2936;47.348;9.640;2023-06-14T10:35:04;5.87;;;5.37;;
5819;SDS011;2936;47.348;9.640;2023-06-14T10:37:32;6.03;;;5.53;;
5819;SDS011;2936;47.348;9.640;2023-06-14T10:40:00;7.40;;;5.47;;
5819;SDS011;2936;47.348;9.640;2023-06-14T10:42:28;6.17;;;5.63;;
5819;SDS011;2936;47.348;9.640;2023-06-14T10:44:58;8.43;;;5.43;;
5819;SDS011;2936;47.348;9.640;2023-06-14T10:47:26;6.03;;;5.37;;
5819;SDS011;2936;47.348;9.640;2023-06-14T10:49:55;12.23;;;5.13;;
5819;SDS011;2936;47.348;9.640;2023-06-14T10:52:25;8.03;;;4.70;;
5819;SDS011;2936;47.348;9.640;2023-06-14T10:55:03;5.53;;;5.03;;
5819;SDS011;2936;47.348;9.640;2023-06-14T10:57:31;5.60;;;5.10;;
5819;SDS011;2936;47.348;9.640;2023-06-14T10:59:59;4.90;;;4.50;;
5819;SDS011;2936;47.348;9.640;2023-06-14T11:05:48;5.50;;;5.10;;
5819;SDS011;2936;47.348;9.640;2023-06-14T11:11:05;5.63;;;5.10;;
5819;SDS011;2936;47.348;9.640;2023-06-14T11:13:33;5.50;;;5.00;;
5819;SDS011;2936;47.348;9.640;2023-06-14T11:16:00;7.93;;;4.93;;
5819;SDS011;2936;47.348;9.640;2023-06-14T11:18:28;5.77;;;4.73;;
5819;SDS011;2936;47.348;9.640;2023-06-14T11:20:57;11.63;;;5.10;;
5819;SDS011;2936;47.348;9.640;2023-06-14T11:23:24;15.63;;;5.40;;
5819;SDS011;2936;47.348;9.640;2023-06-14T11:25:51;7.17;;;5.27;;
5819;SDS011;2936;47.348;9.640;2023-06-14T11:28:18;5.87;;;4.80;;
5819;SDS011;2936;47.348;9.640;2023-06-14T11:30:46;8.83;;;5.13;;
5819;SDS011;2936;47.348;9.640;2023-06-14T11:33:16;5.90;;;4.90;;
5819;SDS011;2936;47.348;9.640;2023-06-14T11:35:44;6.43;;;4.80;;
5819;SDS011;2936;47.348;9.640;2023-06-14T11:38:13;5.20;;;4.77;;
5819;SDS011;2936;47.348;9.640;2023-06-14T11:40:41;6.50;;;4.40;;
5819;SDS011;2936;47.348;9.640;2023-06-14T11:43:08;5.37;;;4.87;;
5819;SDS011;2936;47.348;9.640;2023-06-14T11:45:35;13.23;;;4.90;;
5819;SDS011;2936;47.348;9.640;2023-06-14T11:48:04;7.40;;;4.23;;
5819;SDS011;2936;47.348;9.640;2023-06-14T11:50:33;5.27;;;4.70;;
5819;SDS011;2936;47.348;9.640;2023-06-14T11:53:05;10.67;;;4.37;;
5819;SDS011;2936;47.348;9.640;2023-06-14T11:55:36;5.40;;;5.00;;
5819;SDS011;2936;47.348;9.640;2023-06-14T11:58:05;7.33;;;4.87;;
5819;SDS011;2936;47.348;9.640;2023-06-14T12:00:35;8.37;;;4.97;;
5819;SDS011;2936;47.348;9.640;2023-06-14T12:03:02;9.33;;;5.80;;
5819;SDS011;2936;47.348;9.640;2023-06-14T12:05:30;4.97;;;4.67;;
5819;SDS011;2936;47.348;9.640;2023-06-14T12:07:58;5.03;;;4.63;;
5819;SDS011;2936;47.348;9.640;2023-06-14T12:10:26;6.37;;;4.90;;
5819;SDS011;2936;47.348;9.640;2023-06-14T12:12:57;5.03;;;4.63;;
5819;SDS011;2936;47.348;9.640;2023-06-14T12:15:28;5.17;;;4.40;;
5819;SDS011;2936;47.348;9.640;2023-06-14T12:17:55;5.13;;;4.73;;
5819;SDS011;2936;47.348;9.640;2023-06-14T12:20:23;4.90;;;4.40;;
5819;SDS011;2936;47.348;9.640;2023-06-14T12:22:56;6.00;;;4.63;;
5819;SDS011;2936;47.348;9.640;2023-06-14T12:25:25;9.03;;;5.03;;
5819;SDS011;2936;47.348;9.640;2023-06-14T12:27:53;5.30;;;4.73;;
5819;SDS011;2936;47.348;9.640;2023-06-14T12:30:22;8.03;;;5.20;;
5819;SDS011;2936;47.348;9.640;2023-06-14T12:32:50;5.53;;;4.90;;
5819;SDS011;2936;47.348;9.640;2023-06-14T12:35:17;5.73;;;5.03;;
5819;SDS011;2936;47.348;9.640;2023-06-14T12:37:45;5.93;;;5.10;;
5819;SDS011;2936;47.348;9.640;2023-06-14T12:40:12;5.00;;;4.60;;
5819;SDS011;2936;47.348;9.640;2023-06-14T12:42:40;4.93;;;4.63;;
5819;SDS011;2936;47.348;9.640;2023-06-14T12:45:08;5.40;;;4.57;;
5819;SDS011;2936;47.348;9.640;2023-06-14T12:47:36;6.40;;;5.47;;
5819;SDS011;2936;47.348;9.640;2023-06-14T12:50:04;8.60;;;4.93;;
5819;SDS011;2936;47.348;9.640;2023-06-14T12:52:32;5.17;;;4.70;;
5819;SDS011;2936;47.348;9.640;2023-06-14T12:55:01;5.33;;;4.30;;
5819;SDS011;2936;47.348;9.640;2023-06-14T12:57:29;6.10;;;4.30;;
5819;SDS011;2936;47.348;9.640;2023-06-14T12:59:56;8.17;;;5.50;;
5819;SDS011;2936;47.348;9.640;2023-06-14T13:02:24;49.13;;;7.30;;
5819;SDS011;2936;47.348;9.640;2023-06-14T13:04:53;36.80;;;6.57;;
5819;SDS011;2936;47.348;9.640;2023-06-14T13:07:21;9.43;;;5.13;;
5819;SDS011;2936;47.348;9.640;2023-06-14T13:09:48;7.23;;;5.00;;
5819;SDS011;2936;47.348;9.640;2023-06-14T13:12:16;5.60;;;5.10;;
5819;SDS011;2936;47.348;9.640;2023-06-14T13:14:43;4.97;;;4.57;;
5819;SDS011;2936;47.348;9.640;2023-06-14T13:17:10;5.90;;;5.00;;
5819;SDS011;2936;47.348;9.640;2023-06-14T13:19:38;5.07;;;4.60;;
5819;SDS011;2936;47.348;9.640;2023-06-14T13:22:08;4.70;;;4.40;;
5819;SDS011;2936;47.348;9.640;2023-06-14T13:24:36;8.00;;;5.20;;
5819;SDS011;2936;47.348;9.640;2023-06-14T13:27:03;6.73;;;5.03;;
5819;SDS011;2936;47.348;9.640;2023-06-14T13:29:32;13.13;;;4.60;;
5819;SDS011;2936;47.348;9.640;2023-06-14T13:32:01;11.17;;;5.27;;
5819;SDS011;2936;47.348;9.640;2023-06-14T13:34:28;4.97;;;4.53;;
5819;SDS011;2936;47.348;9.640;2023-06-14T13:36:55;5.50;;;4.23;;
5819;SDS011;2936;47.348;9.640;2023-06-14T13:39:25;5.23;;;4.60;;
5819;SDS011;2936;47.348;9.640;2023-06-14T13:41:52;5.00;;;4.70;;
5819;SDS011;2936;47.348;9.640;2023-06-14T13:44:20;6.40;;;4.80;;
5819;SDS011;2936;47.348;9.640;2023-06-14T13:46:47;6.67;;;4.63;;
5819;SDS011;2936;47.348;9.640;2023-06-14T13:49:15;5.03;;;4.63;;
5819;SDS011;2936;47.348;9.640;2023-06-14T13:51:42;5.20;;;4.30;;
5819;SDS011;2936;47.348;9.640;2023-06-14T13:54:11;8.93;;;5.60;;
5819;SDS011;2936;47.348;9.640;2023-06-14T13:56:41;5.17;;;4.77;;
5819;SDS011;2936;47.348;9.640;2023-06-14T13:59:08;5.23;;;4.83;;
5819;SDS011;2936;47.348;9.640;2023-06-14T14:01:36;5.00;;;4.60;;
5819;SDS011;2936;47.348;9.640;2023-06-14T14:04:03;7.17;;;4.83;;
5819;SDS011;2936;47.348;9.640;2023-06-14T14:06:31;5.80;;;5.20;;
5819;SDS011;2936;47.348;9.640;2023-06-14T14:08:58;9.53;;;4.50;;
5819;SDS011;2936;47.348;9.640;2023-06-14T14:11:26;5.10;;;4.60;;
5819;SDS011;2936;47.348;9.640;2023-06-14T14:13:55;8.50;;;5.60;;
5819;SDS011;2936;47.348;9.640;2023-06-14T14:16:23;7.23;;;5.13;;
5819;SDS011;2936;47.348;9.640;2023-06-14T14:18:50;4.70;;;4.30;;
5819;SDS011;2936;47.348;9.640;2023-06-14T14:21:18;6.17;;;4.77;;
5819;SDS011;2936;47.348;9.640;2023-06-14T14:23:45;6.00;;;5.20;;
5819;SDS011;2936;47.348;9.640;2023-06-14T14:26:14;6.40;;;4.57;;
5819;SDS011;2936;47.348;9.640;2023-06-14T14:28:42;8.20;;;5.03;;
5819;SDS011;2936;47.348;9.640;2023-06-14T14:31:10;6.20;;;4.30;;
5819;SDS011;2936;47.348;9.640;2023-06-14T14:33:38;4.80;;;4.00;;
5819;SDS011;2936;47.348;9.640;2023-06-14T14:36:05;4.90;;;4.50;;
5819;SDS011;2936;47.348;9.640;2023-06-14T14:38:32;8.00;;;5.30;;
5819;SDS011;2936;47.348;9.640;2023-06-14T14:41:00;7.77;;;4.50;;
5819;SDS011;2936;47.348;9.640;2023-06-14T14:43:27;6.87;;;4.80;;
5819;SDS011;2936;47.348;9.640;2023-06-14T14:45:56;6.03;;;5.00;;
5819;SDS011;2936;47.348;9.640;2023-06-14T14:48:24;4.50;;;4.10;;
5819;SDS011;2936;47.348;9.640;2023-06-14T14:50:52;6.30;;;4.10;;
5819;SDS011;2936;47.348;9.640;2023-06-14T14:53:19;6.30;;;4.83;;
5819;SDS011;2936;47.348;9.640;2023-06-14T14:55:46;17.10;;;5.10;;
5819;SDS011;2936;47.348;9.640;2023-06-14T14:58:14;4.90;;;4.60;;
5819;SDS011;2936;47.348;9.640;2023-06-14T15:00:43;5.20;;;4.80;;
5819;SDS011;2936;47.348;9.640;2023-06-14T15:03:10;5.30;;;4.33;;
5819;SDS011;2936;47.348;9.640;2023-06-14T15:05:39;4.77;;;4.33;;
5819;SDS011;2936;47.348;9.640;2023-06-14T15:08:06;5.67;;;4.47;;
5819;SDS011;2936;47.348;9.640;2023-06-14T15:10:37;4.23;;;3.83;;
5819;SDS011;2936;47.348;9.640;2023-06-14T15:13:06;4.23;;;4.00;;
5819;SDS011;2936;47.348;9.640;2023-06-14T15:15:34;5.03;;;4.73;;
5819;SDS011;2936;47.348;9.640;2023-06-14T15:18:01;5.57;;;5.07;;
5819;SDS011;2936;47.348;9.640;2023-06-14T15:20:29;5.10;;;4.60;;
5819;SDS011;2936;47.348;9.640;2023-06-14T15:22:58;5.33;;;4.50;;
5819;SDS011;2936;47.348;9.640;2023-06-14T15:25:25;5.20;;;4.70;;
5819;SDS011;2936;47.348;9.640;2023-06-14T15:27:53;5.40;;;3.83;;
5819;SDS011;2936;47.348;9.640;2023-06-14T15:30:21;9.80;;;4.60;;
5819;SDS011;2936;47.348;9.640;2023-06-14T15:32:48;5.37;;;4.60;;
5819;SDS011;2936;47.348;9.640;2023-06-14T15:35:16;10.67;;;5.30;;
5819;SDS011;2936;47.348;9.640;2023-06-14T15:37:44;7.93;;;4.83;;
5819;SDS011;2936;47.348;9.640;2023-06-14T15:40:13;6.00;;;4.30;;
5819;SDS011;2936;47.348;9.640;2023-06-14T15:42:41;4.60;;;4.30;;
5819;SDS011;2936;47.348;9.640;2023-06-14T15:45:08;5.13;;;4.63;;